Alief, Texas
Current Conditions -  °F | °C
As of 6:53 AM on Wednesday 22 Oct 2014 (Local Time) from KSGR Reporting Station
Clear Clear  
Wind Chill: 62°   Ceiling: Unl
Heat Index: 62°   Visibility: 7mi
Dew Point: 59°   Wind: 5mph
Humidity: 90%   Direction: 20°NNE
Pressure: 30.05"   Gusts: NA
Location:  29.71°N, 95.6°W
Report Text: KSGR 221153Z 02004KT 7SM CLR 17/15 A3005 RMK AO2 SLP177 T01670150 10183 20161 53012
Loading
Personal Weather Stations






























Interactive Weather Map New forecast layout! Learn more

10-Day Weather Forecast

Advertisements
Track Severe Weather on mobile